Terminal Aerodrome Forecast
Issued by NWS

Home | Current Version | Previous Version | Text Only | Print | Product List | Glossary On
Versions: 1 2 3 4 5 6 7 8 9 10 11 12 13 14 15 16 17 18 19 20 21 22 23 24 25 26 27 28 29 30 31 32 33
927
FTUS45 KPSR 250940 AAC
TAFPHX
TAF AMD
KPHX 250940Z 2510/2606 14006KT P6SM VCSH SCT120 BKN200
     FM251030 12006KT P6SM FEW120 BKN200
     FM251800 27008KT P6SM FEW120 SCT250
      TEMPO 2522/2602 27013G20KT=

USA.gov is the U.S. government's official web portal to all federal, state and local government web resources and services.